sensor_id;sensor_type;location;lat;lon;timestamp;P1;durP1;ratioP1;P2;durP2;ratioP2
41253;SDS011;26987;59.928;30.306;2023-08-17T00:00:45;9.95;;;4.43;;
41253;SDS011;26987;59.928;30.306;2023-08-17T00:03:12;8.13;;;4.53;;
41253;SDS011;26987;59.928;30.306;2023-08-17T00:05:40;8.77;;;4.82;;
41253;SDS011;26987;59.928;30.306;2023-08-17T00:08:08;15.02;;;5.57;;
41253;SDS011;26987;59.928;30.306;2023-08-17T00:10:36;11.05;;;5.55;;
41253;SDS011;26987;59.928;30.306;2023-08-17T00:13:04;13.13;;;5.63;;
41253;SDS011;26987;59.928;30.306;2023-08-17T00:15:32;13.80;;;7.00;;
41253;SDS011;26987;59.928;30.306;2023-08-17T00:18:02;21.70;;;7.90;;
41253;SDS011;26987;59.928;30.306;2023-08-17T00:20:30;17.33;;;6.97;;
41253;SDS011;26987;59.928;30.306;2023-08-17T00:22:58;18.88;;;8.23;;
41253;SDS011;26987;59.928;30.306;2023-08-17T00:25:26;12.77;;;6.97;;
41253;SDS011;26987;59.928;30.306;2023-08-17T00:27:53;21.45;;;7.15;;
41253;SDS011;26987;59.928;30.306;2023-08-17T00:30:22;18.70;;;6.20;;
41253;SDS011;26987;59.928;30.306;2023-08-17T00:32:49;11.93;;;6.03;;
41253;SDS011;26987;59.928;30.306;2023-08-17T00:35:20;16.77;;;7.32;;
41253;SDS011;26987;59.928;30.306;2023-08-17T00:37:49;19.13;;;6.80;;
41253;SDS011;26987;59.928;30.306;2023-08-17T00:40:16;14.68;;;7.43;;
41253;SDS011;26987;59.928;30.306;2023-08-17T00:42:44;13.95;;;7.03;;
41253;SDS011;26987;59.928;30.306;2023-08-17T00:45:12;11.38;;;7.60;;
41253;SDS011;26987;59.928;30.306;2023-08-17T00:47:41;12.15;;;7.15;;
41253;SDS011;26987;59.928;30.306;2023-08-17T00:50:09;17.10;;;8.80;;
41253;SDS011;26987;59.928;30.306;2023-08-17T00:52:40;13.80;;;7.32;;
41253;SDS011;26987;59.928;30.306;2023-08-17T00:55:08;34.60;;;8.38;;
41253;SDS011;26987;59.928;30.306;2023-08-17T00:57:38;17.45;;;7.88;;
41253;SDS011;26987;59.928;30.306;2023-08-17T01:00:08;8.35;;;5.78;;
41253;SDS011;26987;59.928;30.306;2023-08-17T01:02:37;11.35;;;5.30;;
41253;SDS011;26987;59.928;30.306;2023-08-17T01:05:06;12.38;;;4.72;;
41253;SDS011;26987;59.928;30.306;2023-08-17T01:07:34;8.20;;;4.65;;
41253;SDS011;26987;59.928;30.306;2023-08-17T01:10:05;8.40;;;4.70;;
41253;SDS011;26987;59.928;30.306;2023-08-17T01:12:36;7.95;;;4.85;;
41253;SDS011;26987;59.928;30.306;2023-08-17T01:15:09;14.98;;;5.85;;
41253;SDS011;26987;59.928;30.306;2023-08-17T01:17:42;14.75;;;4.53;;
41253;SDS011;26987;59.928;30.306;2023-08-17T01:20:13;11.73;;;5.05;;
41253;SDS011;26987;59.928;30.306;2023-08-17T01:22:44;8.48;;;4.70;;
41253;SDS011;26987;59.928;30.306;2023-08-17T01:25:14;7.57;;;4.63;;
41253;SDS011;26987;59.928;30.306;2023-08-17T01:27:43;11.52;;;4.85;;
41253;SDS011;26987;59.928;30.306;2023-08-17T01:30:13;6.50;;;4.78;;
41253;SDS011;26987;59.928;30.306;2023-08-17T01:32:44;8.57;;;4.93;;
41253;SDS011;26987;59.928;30.306;2023-08-17T01:35:20;10.82;;;5.15;;
41253;SDS011;26987;59.928;30.306;2023-08-17T01:37:52;9.85;;;5.53;;
41253;SDS011;26987;59.928;30.306;2023-08-17T01:40:24;9.63;;;4.95;;
41253;SDS011;26987;59.928;30.306;2023-08-17T01:42:54;11.20;;;5.57;;
41253;SDS011;26987;59.928;30.306;2023-08-17T01:45:24;9.90;;;5.68;;
41253;SDS011;26987;59.928;30.306;2023-08-17T01:47:52;9.40;;;5.38;;
41253;SDS011;26987;59.928;30.306;2023-08-17T01:50:20;8.52;;;6.25;;
41253;SDS011;26987;59.928;30.306;2023-08-17T01:52:50;10.45;;;6.60;;
41253;SDS011;26987;59.928;30.306;2023-08-17T01:55:20;13.43;;;7.65;;
41253;SDS011;26987;59.928;30.306;2023-08-17T01:57:50;13.95;;;6.28;;
41253;SDS011;26987;59.928;30.306;2023-08-17T02:00:18;12.65;;;6.53;;
41253;SDS011;26987;59.928;30.306;2023-08-17T02:02:45;10.07;;;5.90;;
41253;SDS011;26987;59.928;30.306;2023-08-17T02:05:13;12.15;;;6.18;;
41253;SDS011;26987;59.928;30.306;2023-08-17T02:07:45;11.18;;;6.43;;
41253;SDS011;26987;59.928;30.306;2023-08-17T02:10:14;14.13;;;6.82;;
41253;SDS011;26987;59.928;30.306;2023-08-17T02:12:42;10.10;;;6.82;;
41253;SDS011;26987;59.928;30.306;2023-08-17T02:15:11;8.77;;;6.40;;
41253;SDS011;26987;59.928;30.306;2023-08-17T02:17:42;10.90;;;6.22;;
41253;SDS011;26987;59.928;30.306;2023-08-17T02:20:10;14.60;;;6.70;;
41253;SDS011;26987;59.928;30.306;2023-08-17T02:22:42;10.50;;;6.65;;
41253;SDS011;26987;59.928;30.306;2023-08-17T02:25:10;14.32;;;7.00;;
41253;SDS011;26987;59.928;30.306;2023-08-17T02:27:37;16.55;;;6.20;;
41253;SDS011;26987;59.928;30.306;2023-08-17T02:30:06;11.77;;;6.55;;
41253;SDS011;26987;59.928;30.306;2023-08-17T02:32:36;10.45;;;7.03;;
41253;SDS011;26987;59.928;30.306;2023-08-17T02:35:04;11.48;;;7.22;;
41253;SDS011;26987;59.928;30.306;2023-08-17T02:37:32;12.63;;;7.05;;
41253;SDS011;26987;59.928;30.306;2023-08-17T02:40:00;10.68;;;6.93;;
41253;SDS011;26987;59.928;30.306;2023-08-17T02:42:28;17.67;;;8.15;;
41253;SDS011;26987;59.928;30.306;2023-08-17T02:44:56;15.75;;;6.57;;
41253;SDS011;26987;59.928;30.306;2023-08-17T02:47:24;13.48;;;6.65;;
41253;SDS011;26987;59.928;30.306;2023-08-17T02:49:54;15.02;;;6.63;;
41253;SDS011;26987;59.928;30.306;2023-08-17T02:52:22;12.85;;;6.30;;
41253;SDS011;26987;59.928;30.306;2023-08-17T02:54:50;10.35;;;6.00;;
41253;SDS011;26987;59.928;30.306;2023-08-17T02:57:18;12.40;;;7.78;;
41253;SDS011;26987;59.928;30.306;2023-08-17T02:59:46;12.23;;;7.47;;
41253;SDS011;26987;59.928;30.306;2023-08-17T03:02:14;12.18;;;6.80;;
41253;SDS011;26987;59.928;30.306;2023-08-17T03:04:42;10.70;;;5.97;;
41253;SDS011;26987;59.928;30.306;2023-08-17T03:07:12;13.73;;;6.43;;
41253;SDS011;26987;59.928;30.306;2023-08-17T03:09:40;10.20;;;5.65;;
41253;SDS011;26987;59.928;30.306;2023-08-17T03:12:08;11.52;;;6.43;;
41253;SDS011;26987;59.928;30.306;2023-08-17T03:14:36;9.52;;;5.80;;
41253;SDS011;26987;59.928;30.306;2023-08-17T03:17:03;9.00;;;5.32;;
41253;SDS011;26987;59.928;30.306;2023-08-17T03:19:31;13.73;;;5.53;;
41253;SDS011;26987;59.928;30.306;2023-08-17T03:21:59;7.75;;;5.07;;
41253;SDS011;26987;59.928;30.306;2023-08-17T03:24:28;11.88;;;5.38;;
41253;SDS011;26987;59.928;30.306;2023-08-17T03:26:57;15.43;;;5.20;;
41253;SDS011;26987;59.928;30.306;2023-08-17T03:29:25;9.13;;;5.22;;
41253;SDS011;26987;59.928;30.306;2023-08-17T03:31:54;11.15;;;5.50;;
41253;SDS011;26987;59.928;30.306;2023-08-17T03:34:22;8.70;;;5.22;;
41253;SDS011;26987;59.928;30.306;2023-08-17T03:36:50;7.28;;;4.80;;
41253;SDS011;26987;59.928;30.306;2023-08-17T03:39:18;10.73;;;5.47;;
41253;SDS011;26987;59.928;30.306;2023-08-17T03:41:47;8.02;;;5.40;;
41253;SDS011;26987;59.928;30.306;2023-08-17T03:44:16;14.63;;;6.03;;
41253;SDS011;26987;59.928;30.306;2023-08-17T03:46:44;9.38;;;5.53;;
41253;SDS011;26987;59.928;30.306;2023-08-17T03:49:13;8.27;;;5.40;;
41253;SDS011;26987;59.928;30.306;2023-08-17T03:51:41;8.02;;;5.57;;
41253;SDS011;26987;59.928;30.306;2023-08-17T03:54:08;11.00;;;5.43;;
41253;SDS011;26987;59.928;30.306;2023-08-17T03:56:36;9.15;;;5.05;;
41253;SDS011;26987;59.928;30.306;2023-08-17T03:59:05;8.80;;;5.07;;
41253;SDS011;26987;59.928;30.306;2023-08-17T04:01:34;6.65;;;4.45;;
41253;SDS011;26987;59.928;30.306;2023-08-17T04:04:01;6.68;;;4.75;;
41253;SDS011;26987;59.928;30.306;2023-08-17T04:06:29;8.80;;;4.53;;
41253;SDS011;26987;59.928;30.306;2023-08-17T04:08:57;10.45;;;4.55;;
41253;SDS011;26987;59.928;30.306;2023-08-17T04:11:26;8.27;;;4.32;;
41253;SDS011;26987;59.928;30.306;2023-08-17T04:13:54;12.85;;;4.80;;
41253;SDS011;26987;59.928;30.306;2023-08-17T04:16:23;7.78;;;4.55;;
41253;SDS011;26987;59.928;30.306;2023-08-17T04:18:51;11.20;;;4.50;;
41253;SDS011;26987;59.928;30.306;2023-08-17T04:21:19;9.82;;;4.32;;
41253;SDS011;26987;59.928;30.306;2023-08-17T04:23:47;8.10;;;4.63;;
41253;SDS011;26987;59.928;30.306;2023-08-17T04:26:15;9.98;;;5.20;;
41253;SDS011;26987;59.928;30.306;2023-08-17T04:28:43;8.77;;;4.38;;
41253;SDS011;26987;59.928;30.306;2023-08-17T04:31:11;7.35;;;4.85;;
41253;SDS011;26987;59.928;30.306;2023-08-17T04:33:42;12.55;;;4.97;;
41253;SDS011;26987;59.928;30.306;2023-08-17T04:36:10;7.50;;;4.75;;
41253;SDS011;26987;59.928;30.306;2023-08-17T04:38:38;8.70;;;4.70;;
41253;SDS011;26987;59.928;30.306;2023-08-17T04:41:06;9.75;;;4.57;;
41253;SDS011;26987;59.928;30.306;2023-08-17T04:43:34;7.35;;;4.20;;
41253;SDS011;26987;59.928;30.306;2023-08-17T04:46:02;6.10;;;3.97;;
41253;SDS011;26987;59.928;30.306;2023-08-17T04:48:30;9.63;;;5.18;;
41253;SDS011;26987;59.928;30.306;2023-08-17T04:51:00;7.97;;;5.35;;
41253;SDS011;26987;59.928;30.306;2023-08-17T04:53:28;5.10;;;3.97;;
41253;SDS011;26987;59.928;30.306;2023-08-17T04:55:58;7.05;;;3.88;;
41253;SDS011;26987;59.928;30.306;2023-08-17T04:58:26;9.15;;;3.88;;
41253;SDS011;26987;59.928;30.306;2023-08-17T05:00:54;7.53;;;4.00;;
41253;SDS011;26987;59.928;30.306;2023-08-17T05:03:23;5.75;;;3.55;;
41253;SDS011;26987;59.928;30.306;2023-08-17T05:05:52;8.00;;;4.07;;
41253;SDS011;26987;59.928;30.306;2023-08-17T05:08:21;5.57;;;3.85;;
41253;SDS011;26987;59.928;30.306;2023-08-17T05:10:49;6.60;;;3.78;;
41253;SDS011;26987;59.928;30.306;2023-08-17T05:13:17;8.32;;;3.92;;
41253;SDS011;26987;59.928;30.306;2023-08-17T05:15:46;8.05;;;3.95;;
41253;SDS011;26987;59.928;30.306;2023-08-17T05:18:15;7.88;;;4.45;;
41253;SDS011;26987;59.928;30.306;2023-08-17T05:20:44;10.30;;;4.95;;
41253;SDS011;26987;59.928;30.306;2023-08-17T05:23:13;8.20;;;3.90;;
41253;SDS011;26987;59.928;30.306;2023-08-17T05:25:45;6.43;;;4.28;;
41253;SDS011;26987;59.928;30.306;2023-08-17T05:28:13;7.45;;;4.22;;
41253;SDS011;26987;59.928;30.306;2023-08-17T05:30:41;8.20;;;4.78;;
41253;SDS011;26987;59.928;30.306;2023-08-17T05:33:09;7.63;;;4.25;;
41253;SDS011;26987;59.928;30.306;2023-08-17T05:35:38;9.00;;;5.03;;
41253;SDS011;26987;59.928;30.306;2023-08-17T05:38:06;7.90;;;4.63;;
41253;SDS011;26987;59.928;30.306;2023-08-17T05:40:33;7.68;;;4.25;;
41253;SDS011;26987;59.928;30.306;2023-08-17T05:43:03;7.93;;;4.03;;
41253;SDS011;26987;59.928;30.306;2023-08-17T05:45:31;6.15;;;4.38;;
41253;SDS011;26987;59.928;30.306;2023-08-17T05:48:03;12.73;;;4.45;;
41253;SDS011;26987;59.928;30.306;2023-08-17T05:50:31;13.15;;;4.63;;
41253;SDS011;26987;59.928;30.306;2023-08-17T05:52:59;5.70;;;4.15;;
41253;SDS011;26987;59.928;30.306;2023-08-17T05:55:27;6.00;;;3.92;;
41253;SDS011;26987;59.928;30.306;2023-08-17T05:57:55;7.18;;;4.80;;
41253;SDS011;26987;59.928;30.306;2023-08-17T06:00:24;6.07;;;4.80;;
41253;SDS011;26987;59.928;30.306;2023-08-17T06:02:52;4.53;;;3.75;;
41253;SDS011;26987;59.928;30.306;2023-08-17T06:05:22;7.60;;;4.30;;
41253;SDS011;26987;59.928;30.306;2023-08-17T06:07:52;11.50;;;5.10;;
41253;SDS011;26987;59.928;30.306;2023-08-17T06:10:20;5.82;;;4.35;;
41253;SDS011;26987;59.928;30.306;2023-08-17T06:12:51;8.02;;;5.32;;
41253;SDS011;26987;59.928;30.306;2023-08-17T06:15:19;11.18;;;4.47;;
41253;SDS011;26987;59.928;30.306;2023-08-17T06:17:52;7.93;;;4.88;;
41253;SDS011;26987;59.928;30.306;2023-08-17T06:22:48;6.22;;;4.20;;
41253;SDS011;26987;59.928;30.306;2023-08-17T06:25:16;7.63;;;5.00;;
41253;SDS011;26987;59.928;30.306;2023-08-17T06:27:44;6.38;;;3.70;;
41253;SDS011;26987;59.928;30.306;2023-08-17T06:30:12;6.55;;;4.10;;
41253;SDS011;26987;59.928;30.306;2023-08-17T06:32:40;7.45;;;3.85;;
41253;SDS011;26987;59.928;30.306;2023-08-17T06:35:09;10.63;;;4.10;;
41253;SDS011;26987;59.928;30.306;2023-08-17T06:37:37;4.97;;;3.42;;
41253;SDS011;26987;59.928;30.306;2023-08-17T06:40:05;6.65;;;3.72;;
41253;SDS011;26987;59.928;30.306;2023-08-17T06:42:35;6.10;;;3.28;;
41253;SDS011;26987;59.928;30.306;2023-08-17T06:45:03;6.55;;;3.30;;
41253;SDS011;26987;59.928;30.306;2023-08-17T06:47:32;5.05;;;2.70;;
41253;SDS011;26987;59.928;30.306;2023-08-17T06:49:59;5.80;;;3.20;;
41253;SDS011;26987;59.928;30.306;2023-08-17T06:52:29;3.83;;;2.47;;
41253;SDS011;26987;59.928;30.306;2023-08-17T06:54:56;4.72;;;2.78;;
41253;SDS011;26987;59.928;30.306;2023-08-17T06:57:24;8.07;;;3.00;;
41253;SDS011;26987;59.928;30.306;2023-08-17T06:59:52;4.18;;;2.55;;
41253;SDS011;26987;59.928;30.306;2023-08-17T07:02:20;4.43;;;2.38;;
41253;SDS011;26987;59.928;30.306;2023-08-17T07:04:48;5.13;;;2.22;;
41253;SDS011;26987;59.928;30.306;2023-08-17T07:07:16;6.63;;;2.28;;
41253;SDS011;26987;59.928;30.306;2023-08-17T07:09:45;2.85;;;1.50;;
41253;SDS011;26987;59.928;30.306;2023-08-17T07:12:13;4.30;;;2.03;;
41253;SDS011;26987;59.928;30.306;2023-08-17T07:14:41;2.97;;;1.70;;
41253;SDS011;26987;59.928;30.306;2023-08-17T07:17:09;5.10;;;2.03;;
41253;SDS011;26987;59.928;30.306;2023-08-17T07:19:36;3.72;;;1.80;;
41253;SDS011;26987;59.928;30.306;2023-08-17T07:22:04;4.22;;;1.83;;
41253;SDS011;26987;59.928;30.306;2023-08-17T07:24:32;5.63;;;1.70;;
41253;SDS011;26987;59.928;30.306;2023-08-17T07:27:01;5.25;;;2.00;;
41253;SDS011;26987;59.928;30.306;2023-08-17T07:29:29;3.88;;;2.00;;
41253;SDS011;26987;59.928;30.306;2023-08-17T07:31:57;4.93;;;1.42;;
41253;SDS011;26987;59.928;30.306;2023-08-17T07:34:28;8.00;;;2.08;;
41253;SDS011;26987;59.928;30.306;2023-08-17T07:36:57;3.05;;;1.77;;
41253;SDS011;26987;59.928;30.306;2023-08-17T07:39:25;4.03;;;1.38;;
41253;SDS011;26987;59.928;30.306;2023-08-17T07:41:52;3.58;;;2.15;;
41253;SDS011;26987;59.928;30.306;2023-08-17T07:44:22;7.28;;;1.73;;
41253;SDS011;26987;59.928;30.306;2023-08-17T07:46:50;6.22;;;2.15;;
41253;SDS011;26987;59.928;30.306;2023-08-17T07:49:18;4.13;;;1.92;;
41253;SDS011;26987;59.928;30.306;2023-08-17T07:51:46;6.72;;;1.90;;
41253;SDS011;26987;59.928;30.306;2023-08-17T07:54:14;6.40;;;2.05;;
41253;SDS011;26987;59.928;30.306;2023-08-17T07:56:42;4.88;;;1.38;;
41253;SDS011;26987;59.928;30.306;2023-08-17T07:59:10;2.70;;;1.75;;
41253;SDS011;26987;59.928;30.306;2023-08-17T08:01:39;5.82;;;2.58;;
41253;SDS011;26987;59.928;30.306;2023-08-17T08:04:08;5.60;;;1.88;;
41253;SDS011;26987;59.928;30.306;2023-08-17T08:06:35;5.25;;;2.40;;
41253;SDS011;26987;59.928;30.306;2023-08-17T08:09:03;4.68;;;2.00;;
41253;SDS011;26987;59.928;30.306;2023-08-17T08:11:32;5.53;;;2.25;;
41253;SDS011;26987;59.928;30.306;2023-08-17T08:14:00;8.50;;;2.55;;
41253;SDS011;26987;59.928;30.306;2023-08-17T08:16:28;8.70;;;2.42;;
41253;SDS011;26987;59.928;30.306;2023-08-17T08:18:58;6.85;;;2.53;;
41253;SDS011;26987;59.928;30.306;2023-08-17T08:21:26;5.38;;;2.10;;
41253;SDS011;26987;59.928;30.306;2023-08-17T08:23:54;5.43;;;2.50;;
41253;SDS011;26987;59.928;30.306;2023-08-17T08:26:22;3.20;;;2.20;;
41253;SDS011;26987;59.928;30.306;2023-08-17T08:28:50;3.80;;;1.95;;
41253;SDS011;26987;59.928;30.306;2023-08-17T08:31:18;9.05;;;2.40;;
41253;SDS011;26987;59.928;30.306;2023-08-17T08:33:46;5.70;;;2.42;;
41253;SDS011;26987;59.928;30.306;2023-08-17T08:36:15;5.00;;;2.67;;
41253;SDS011;26987;59.928;30.306;2023-08-17T08:38:43;3.53;;;1.80;;
41253;SDS011;26987;59.928;30.306;2023-08-17T08:41:11;5.82;;;2.33;;
41253;SDS011;26987;59.928;30.306;2023-08-17T08:43:39;4.65;;;2.40;;
41253;SDS011;26987;59.928;30.306;2023-08-17T08:46:07;3.83;;;1.90;;
41253;SDS011;26987;59.928;30.306;2023-08-17T08:48:36;5.85;;;2.30;;
41253;SDS011;26987;59.928;30.306;2023-08-17T08:51:07;5.22;;;2.22;;
41253;SDS011;26987;59.928;30.306;2023-08-17T08:53:41;5.05;;;2.15;;
41253;SDS011;26987;59.928;30.306;2023-08-17T08:56:12;3.78;;;2.05;;
41253;SDS011;26987;59.928;30.306;2023-08-17T08:58:42;8.52;;;2.90;;
41253;SDS011;26987;59.928;30.306;2023-08-17T09:01:12;7.03;;;2.53;;
41253;SDS011;26987;59.928;30.306;2023-08-17T09:03:41;8.02;;;2.00;;
41253;SDS011;26987;59.928;30.306;2023-08-17T09:06:09;7.88;;;2.55;;
41253;SDS011;26987;59.928;30.306;2023-08-17T09:08:41;4.75;;;1.98;;
41253;SDS011;26987;59.928;30.306;2023-08-17T09:11:12;6.18;;;2.53;;
41253;SDS011;26987;59.928;30.306;2023-08-17T09:13:40;4.38;;;1.63;;
41253;SDS011;26987;59.928;30.306;2023-08-17T09:16:08;5.07;;;2.10;;
41253;SDS011;26987;59.928;30.306;2023-08-17T09:18:36;3.30;;;2.15;;
41253;SDS011;26987;59.928;30.306;2023-08-17T09:21:05;4.70;;;2.33;;
41253;SDS011;26987;59.928;30.306;2023-08-17T09:23:33;4.38;;;2.33;;
41253;SDS011;26987;59.928;30.306;2023-08-17T09:26:07;4.85;;;2.25;;
41253;SDS011;26987;59.928;30.306;2023-08-17T09:28:38;2.92;;;2.20;;
41253;SDS011;26987;59.928;30.306;2023-08-17T09:31:07;4.53;;;2.92;;
41253;SDS011;26987;59.928;30.306;2023-08-17T09:33:35;5.05;;;2.45;;
41253;SDS011;26987;59.928;30.306;2023-08-17T09:36:03;6.43;;;2.88;;
41253;SDS011;26987;59.928;30.306;2023-08-17T09:38:32;5.95;;;2.53;;
41253;SDS011;26987;59.928;30.306;2023-08-17T09:41:00;3.42;;;2.38;;
41253;SDS011;26987;59.928;30.306;2023-08-17T09:43:29;8.43;;;2.33;;
41253;SDS011;26987;59.928;30.306;2023-08-17T09:46:00;3.97;;;2.47;;
41253;SDS011;26987;59.928;30.306;2023-08-17T09:48:29;8.30;;;2.80;;
41253;SDS011;26987;59.928;30.306;2023-08-17T09:50:57;8.77;;;2.55;;
41253;SDS011;26987;59.928;30.306;2023-08-17T09:53:27;5.88;;;2.60;;
41253;SDS011;26987;59.928;30.306;2023-08-17T09:55:56;4.80;;;2.85;;
41253;SDS011;26987;59.928;30.306;2023-08-17T09:58:26;6.93;;;3.08;;
41253;SDS011;26987;59.928;30.306;2023-08-17T10:00:56;4.80;;;2.55;;
41253;SDS011;26987;59.928;30.306;2023-08-17T10:03:26;7.63;;;2.50;;
41253;SDS011;26987;59.928;30.306;2023-08-17T10:05:58;6.18;;;2.55;;
41253;SDS011;26987;59.928;30.306;2023-08-17T10:11:00;6.03;;;2.17;;
41253;SDS011;26987;59.928;30.306;2023-08-17T10:13:34;4.80;;;2.08;;
41253;SDS011;26987;59.928;30.306;2023-08-17T10:16:09;7.40;;;2.22;;
41253;SDS011;26987;59.928;30.306;2023-08-17T10:18:50;5.13;;;2.50;;
41253;SDS011;26987;59.928;30.306;2023-08-17T10:21:23;5.80;;;2.57;;
41253;SDS011;26987;59.928;30.306;2023-08-17T10:23:55;4.03;;;2.47;;
41253;SDS011;26987;59.928;30.306;2023-08-17T10:26:24;6.25;;;2.33;;
41253;SDS011;26987;59.928;30.306;2023-08-17T10:28:53;3.85;;;2.20;;
41253;SDS011;26987;59.928;30.306;2023-08-17T10:31:26;4.70;;;2.40;;
41253;SDS011;26987;59.928;30.306;2023-08-17T10:33:54;4.97;;;3.00;;
41253;SDS011;26987;59.928;30.306;2023-08-17T10:36:23;3.15;;;2.10;;
41253;SDS011;26987;59.928;30.306;2023-08-17T10:41:48;3.85;;;2.67;;
41253;SDS011;26987;59.928;30.306;2023-08-17T10:44:17;5.57;;;2.95;;
41253;SDS011;26987;59.928;30.306;2023-08-17T10:47:19;4.80;;;2.35;;
41253;SDS011;26987;59.928;30.306;2023-08-17T10:49:49;6.30;;;3.10;;
41253;SDS011;26987;59.928;30.306;2023-08-17T10:52:25;4.05;;;2.63;;
41253;SDS011;26987;59.928;30.306;2023-08-17T10:54:59;7.05;;;2.95;;
41253;SDS011;26987;59.928;30.306;2023-08-17T10:57:28;7.82;;;2.97;;
41253;SDS011;26987;59.928;30.306;2023-08-17T11:00:16;7.50;;;2.58;;
41253;SDS011;26987;59.928;30.306;2023-08-17T11:02:55;8.25;;;2.38;;
41253;SDS011;26987;59.928;30.306;2023-08-17T11:05:34;3.70;;;2.47;;
41253;SDS011;26987;59.928;30.306;2023-08-17T11:08:08;4.65;;;3.25;;
41253;SDS011;26987;59.928;30.306;2023-08-17T11:10:40;8.05;;;3.05;;
41253;SDS011;26987;59.928;30.306;2023-08-17T11:13:09;6.68;;;3.00;;
41253;SDS011;26987;59.928;30.306;2023-08-17T11:15:38;5.03;;;2.78;;
41253;SDS011;26987;59.928;30.306;2023-08-17T11:18:12;7.50;;;3.13;;
41253;SDS011;26987;59.928;30.306;2023-08-17T11:20:41;6.03;;;2.85;;
41253;SDS011;26987;59.928;30.306;2023-08-17T11:23:09;6.18;;;3.35;;
41253;SDS011;26987;59.928;30.306;2023-08-17T11:25:38;5.07;;;2.83;;
41253;SDS011;26987;59.928;30.306;2023-08-17T11:28:06;9.13;;;3.00;;
41253;SDS011;26987;59.928;30.306;2023-08-17T11:30:36;8.15;;;3.60;;
41253;SDS011;26987;59.928;30.306;2023-08-17T11:33:05;5.78;;;2.92;;
41253;SDS011;26987;59.928;30.306;2023-08-17T11:35:35;6.93;;;2.72;;
41253;SDS011;26987;59.928;30.306;2023-08-17T11:38:05;5.30;;;2.85;;
41253;SDS011;26987;59.928;30.306;2023-08-17T11:40:34;5.13;;;3.42;;
41253;SDS011;26987;59.928;30.306;2023-08-17T11:43:03;6.47;;;2.95;;
41253;SDS011;26987;59.928;30.306;2023-08-17T11:45:32;4.53;;;3.25;;
41253;SDS011;26987;59.928;30.306;2023-08-17T11:48:01;10.20;;;3.58;;
41253;SDS011;26987;59.928;30.306;2023-08-17T11:50:30;4.90;;;3.35;;
41253;SDS011;26987;59.928;30.306;2023-08-17T11:53:00;5.88;;;3.17;;
41253;SDS011;26987;59.928;30.306;2023-08-17T11:55:30;8.43;;;3.63;;
41253;SDS011;26987;59.928;30.306;2023-08-17T11:57:58;10.10;;;3.50;;
41253;SDS011;26987;59.928;30.306;2023-08-17T12:00:27;7.38;;;3.83;;
41253;SDS011;26987;59.928;30.306;2023-08-17T12:02:55;6.25;;;3.22;;
41253;SDS011;26987;59.928;30.306;2023-08-17T12:05:24;5.45;;;3.45;;
41253;SDS011;26987;59.928;30.306;2023-08-17T12:07:55;10.02;;;3.75;;
41253;SDS011;26987;59.928;30.306;2023-08-17T12:10:25;5.95;;;3.00;;
41253;SDS011;26987;59.928;30.306;2023-08-17T12:12:57;5.10;;;3.10;;
41253;SDS011;26987;59.928;30.306;2023-08-17T12:15:29;5.05;;;3.30;;
41253;SDS011;26987;59.928;30.306;2023-08-17T12:17:59;7.07;;;3.75;;
41253;SDS011;26987;59.928;30.306;2023-08-17T12:20:30;7.35;;;4.07;;
41253;SDS011;26987;59.928;30.306;2023-08-17T12:23:02;7.32;;;3.50;;
41253;SDS011;26987;59.928;30.306;2023-08-17T12:25:32;6.28;;;3.85;;
41253;SDS011;26987;59.928;30.306;2023-08-17T12:28:00;8.43;;;4.25;;
41253;SDS011;26987;59.928;30.306;2023-08-17T12:30:29;6.55;;;4.05;;
41253;SDS011;26987;59.928;30.306;2023-08-17T12:32:59;6.28;;;3.65;;
41253;SDS011;26987;59.928;30.306;2023-08-17T12:35:27;6.07;;;3.55;;
41253;SDS011;26987;59.928;30.306;2023-08-17T12:37:55;7.25;;;3.72;;
41253;SDS011;26987;59.928;30.306;2023-08-17T12:40:23;8.18;;;4.35;;
41253;SDS011;26987;59.928;30.306;2023-08-17T12:42:53;5.30;;;3.35;;
41253;SDS011;26987;59.928;30.306;2023-08-17T12:45:21;8.27;;;3.63;;
41253;SDS011;26987;59.928;30.306;2023-08-17T12:47:50;6.05;;;3.50;;
41253;SDS011;26987;59.928;30.306;2023-08-17T12:50:18;7.00;;;3.58;;
41253;SDS011;26987;59.928;30.306;2023-08-17T12:52:47;9.32;;;3.53;;
41253;SDS011;26987;59.928;30.306;2023-08-17T12:55:16;5.97;;;3.35;;
41253;SDS011;26987;59.928;30.306;2023-08-17T12:57:44;5.43;;;3.35;;
41253;SDS011;26987;59.928;30.306;2023-08-17T13:00:14;5.85;;;3.05;;
41253;SDS011;26987;59.928;30.306;2023-08-17T13:02:43;6.28;;;3.47;;
41253;SDS011;26987;59.928;30.306;2023-08-17T13:05:15;9.95;;;3.08;;
41253;SDS011;26987;59.928;30.306;2023-08-17T13:07:44;4.40;;;3.03;;
41253;SDS011;26987;59.928;30.306;2023-08-17T13:10:12;6.93;;;2.60;;
41253;SDS011;26987;59.928;30.306;2023-08-17T13:12:40;4.95;;;2.70;;
41253;SDS011;26987;59.928;30.306;2023-08-17T13:15:09;6.85;;;2.72;;
41253;SDS011;26987;59.928;30.306;2023-08-17T13:17:38;7.38;;;2.97;;
41253;SDS011;26987;59.928;30.306;2023-08-17T13:20:07;9.57;;;3.08;;
41253;SDS011;26987;59.928;30.306;2023-08-17T13:22:36;9.93;;;3.30;;
41253;SDS011;26987;59.928;30.306;2023-08-17T13:25:05;8.25;;;2.83;;
41253;SDS011;26987;59.928;30.306;2023-08-17T13:27:34;6.47;;;2.03;;
41253;SDS011;26987;59.928;30.306;2023-08-17T13:30:04;2.72;;;2.03;;
41253;SDS011;26987;59.928;30.306;2023-08-17T13:32:33;5.38;;;2.15;;
41253;SDS011;26987;59.928;30.306;2023-08-17T13:35:03;7.15;;;2.47;;
41253;SDS011;26987;59.928;30.306;2023-08-17T13:37:32;6.35;;;2.85;;
41253;SDS011;26987;59.928;30.306;2023-08-17T13:40:00;7.57;;;2.00;;
41253;SDS011;26987;59.928;30.306;2023-08-17T13:42:29;7.60;;;2.47;;
41253;SDS011;26987;59.928;30.306;2023-08-17T13:44:57;6.45;;;2.13;;
41253;SDS011;26987;59.928;30.306;2023-08-17T13:47:26;5.35;;;2.25;;
41253;SDS011;26987;59.928;30.306;2023-08-17T13:49:54;8.85;;;2.15;;
41253;SDS011;26987;59.928;30.306;2023-08-17T13:52:24;7.55;;;2.30;;
41253;SDS011;26987;59.928;30.306;2023-08-17T13:54:52;6.03;;;1.70;;
41253;SDS011;26987;59.928;30.306;2023-08-17T13:57:21;3.58;;;2.10;;
41253;SDS011;26987;59.928;30.306;2023-08-17T13:59:49;7.45;;;1.98;;
41253;SDS011;26987;59.928;30.306;2023-08-17T14:02:18;6.60;;;2.25;;
41253;SDS011;26987;59.928;30.306;2023-08-17T14:04:46;6.30;;;2.53;;
41253;SDS011;26987;59.928;30.306;2023-08-17T14:07:14;4.93;;;2.00;;
41253;SDS011;26987;59.928;30.306;2023-08-17T14:09:44;7.10;;;2.22;;
41253;SDS011;26987;59.928;30.306;2023-08-17T14:12:12;4.63;;;2.65;;
41253;SDS011;26987;59.928;30.306;2023-08-17T14:14:40;10.07;;;2.78;;
41253;SDS011;26987;59.928;30.306;2023-08-17T14:17:08;5.97;;;3.10;;
41253;SDS011;26987;59.928;30.306;2023-08-17T14:19:37;7.53;;;2.70;;
41253;SDS011;26987;59.928;30.306;2023-08-17T14:22:05;6.47;;;2.78;;
41253;SDS011;26987;59.928;30.306;2023-08-17T14:24:33;6.47;;;2.50;;
41253;SDS011;26987;59.928;30.306;2023-08-17T14:27:03;4.30;;;2.70;;
41253;SDS011;26987;59.928;30.306;2023-08-17T14:29:31;7.05;;;2.10;;
41253;SDS011;26987;59.928;30.306;2023-08-17T14:32:00;6.75;;;2.58;;
41253;SDS011;26987;59.928;30.306;2023-08-17T14:34:28;6.90;;;1.92;;
41253;SDS011;26987;59.928;30.306;2023-08-17T14:36:56;6.97;;;1.95;;
41253;SDS011;26987;59.928;30.306;2023-08-17T14:39:24;4.10;;;2.10;;
41253;SDS011;26987;59.928;30.306;2023-08-17T14:41:53;4.10;;;1.90;;
41253;SDS011;26987;59.928;30.306;2023-08-17T14:44:22;5.40;;;2.17;;
41253;SDS011;26987;59.928;30.306;2023-08-17T14:46:51;3.30;;;2.05;;
41253;SDS011;26987;59.928;30.306;2023-08-17T14:49:20;3.80;;;2.58;;